Huvudsida
METAR-TAF:

METAR-TAF

Flygplatser :

Frontone, Italien

latitud: 43-31N, longitud: 012-44E, höjd: 570 m

Aktuellt väderrapport

Denna rapport gjordes för 58 minuter sedan, klockan 06:55 UTC
Vind 3 kt från väst
Temperatur 4°C
Fuktighet 60%
Tryck 1028 hPa
Sikt 10 km eller mer
Inga moln under 1 500 m eller inga cumulonimbus

METAR: LIVF 220655Z 28003KT CAVOK 04/M03 Q1028 RMK FEW FEW090 MON LIB VAL FOSCHIA DIM VIS MIN 9999

Tid: 08:53 (07:53 UTC)


TAF: saknas

Aktuella väderrapporter och prognoser från 4000 flygplatser (METAR- och TAF-rapporter).

De tillgängliga stationerna syns som gula och röda prickar på kartan.

För musen över prickarna för att se namnen på stationerna.

Klicka sedan för att få väderrapporter och prognoser.

För att ändra kartan: Klicka på de gröna knapparna med ett svart kors på för att zooma in; den gröna knappen med ett streck på för att zooma ut; eller på de gröna pilarna för angränsande kartor.


METAR-TAF: